createdAt,value
2022-08-10T00:04:02.916Z,98411.63
2022-08-10T00:08:07.817Z,98411.75
2022-08-10T00:12:11.742Z,98415.31
2022-08-10T00:16:15.425Z,98416.03
2022-08-10T00:20:19.294Z,98419.41
2022-08-10T00:24:24.852Z,98411.25
2022-08-10T00:28:28.468Z,98412.63
2022-08-10T00:32:31.938Z,98423.50
2022-08-10T00:36:34.974Z,98416.97
2022-08-10T00:40:39.669Z,98404.00
2022-08-10T00:44:45.560Z,98408.78
2022-08-10T00:49:00.070Z,98410.81
2022-08-10T00:53:04.509Z,98403.41
2022-08-10T00:57:17.757Z,98407.22
2022-08-10T01:02:08.279Z,98400.50
2022-08-10T01:05:53.658Z,98408.59
2022-08-10T01:10:10.193Z,98402.88
2022-08-10T01:14:23.790Z,98404.03
2022-08-10T01:18:39.937Z,98399.16
2022-08-10T01:23:05.074Z,98405.94
2022-08-10T01:27:34.217Z,98401.59
2022-08-10T01:31:43.219Z,98406.94
2022-08-10T01:35:53.894Z,98404.38
2022-08-10T01:40:00.431Z,98411.72
2022-08-10T01:44:10.424Z,98402.25
2022-08-10T01:48:32.882Z,98409.03
2022-08-10T01:52:43.201Z,98407.78
2022-08-10T01:56:52.365Z,98405.50
2022-08-10T02:00:58.838Z,98406.66
2022-08-10T02:05:05.230Z,98412.28
2022-08-10T02:09:09.557Z,98404.91
2022-08-10T02:13:14.753Z,98409.66
2022-08-10T02:18:00.422Z,98409.22
2022-08-10T02:22:36.472Z,98408.56
2022-08-10T02:26:19.325Z,98410.75
2022-08-10T02:30:23.909Z,98409.09
2022-08-10T02:34:28.687Z,98404.81
2022-08-10T02:38:59.038Z,98405.84
2022-08-10T02:45:23.151Z,98407.81
2022-08-10T02:47:51.709Z,98407.16
2022-08-10T02:52:08.189Z,98411.97
2022-08-10T02:56:22.059Z,98410.50
2022-08-10T03:00:26.396Z,98414.44
2022-08-10T03:04:55.441Z,98414.44
2022-08-10T03:09:01.815Z,98411.19
2022-08-10T03:13:10.402Z,98418.41
2022-08-10T03:17:16.392Z,98425.19
2022-08-10T03:21:22.059Z,98419.84
2022-08-10T03:25:27.457Z,98417.22
2022-08-10T03:30:23.379Z,98418.28
2022-08-10T03:33:59.537Z,98411.78
2022-08-10T03:38:03.180Z,98427.53
2022-08-10T03:42:09.436Z,98427.41
2022-08-10T03:46:16.983Z,98428.75
2022-08-10T03:50:46.085Z,98425.31
2022-08-10T03:54:46.062Z,98431.22
2022-08-10T03:58:49.839Z,98431.03
2022-08-10T04:02:55.710Z,98435.97
2022-08-10T04:07:00.329Z,98435.78
2022-08-10T04:11:03.839Z,98437.41
2022-08-10T04:15:08.189Z,98435.41
2022-08-10T04:19:15.030Z,98429.19
2022-08-10T04:23:23.243Z,98430.81
2022-08-10T04:27:27.836Z,98432.47
2022-08-10T04:31:33.432Z,98435.91
2022-08-10T04:35:40.466Z,98436.75
2022-08-10T04:39:43.719Z,98439.03
2022-08-10T04:43:48.131Z,98443.56
2022-08-10T04:48:00.185Z,98442.91
2022-08-10T04:52:08.042Z,98438.59
2022-08-10T04:56:13.469Z,98439.69
2022-08-10T05:00:18.900Z,98446.91
2022-08-10T05:04:34.870Z,98447.84
2022-08-10T05:08:43.150Z,98445.19
2022-08-10T05:12:47.629Z,98460.72
2022-08-10T05:16:51.497Z,98453.44
2022-08-10T05:20:54.579Z,98459.13
2022-08-10T05:24:59.662Z,98460.38
2022-08-10T05:29:03.228Z,98458.13
2022-08-10T05:33:08.997Z,98454.06
2022-08-10T05:38:10.520Z,98460.56
2022-08-10T05:41:44.771Z,98465.03
2022-08-10T05:46:19.635Z,98464.41
2022-08-10T05:50:14.446Z,98454.88
2022-08-10T05:54:17.601Z,98458.75
2022-08-10T05:58:22.562Z,98458.91
2022-08-10T06:02:35.538Z,98458.28
2022-08-10T06:06:40.486Z,98468.16
2022-08-10T06:12:24.361Z,98465.50
2022-08-10T06:15:21.711Z,98476.63
2022-08-10T06:19:37.786Z,98461.63
2022-08-10T06:23:42.535Z,98469.31
2022-08-10T06:27:48.884Z,98471.50
2022-08-10T06:31:55.894Z,98475.31
2022-08-10T06:36:00.708Z,98467.41
2022-08-10T06:40:04.390Z,98460.28
2022-08-10T06:44:17.309Z,98468.78
2022-08-10T06:48:28.006Z,98467.13
2022-08-10T06:52:34.902Z,98469.72
2022-08-10T06:56:55.828Z,98470.66
2022-08-10T07:01:10.518Z,98471.09
2022-08-10T07:05:20.973Z,98462.47
2022-08-10T07:09:25.837Z,98453.69
2022-08-10T07:14:16.732Z,98450.31
2022-08-10T07:17:56.269Z,98450.28
2022-08-10T07:22:02.373Z,98455.38
2022-08-10T07:26:10.064Z,98442.84
2022-08-10T07:30:13.997Z,98442.50
2022-08-10T07:34:28.564Z,98440.53
2022-08-10T07:38:35.458Z,98441.38
2022-08-10T07:42:45.701Z,98444.00
2022-08-10T07:46:54.123Z,98438.34
2022-08-10T07:51:00.370Z,98432.06
2022-08-10T07:55:07.877Z,98436.69
2022-08-10T07:59:14.087Z,98434.44
2022-08-10T08:03:18.485Z,98428.94
2022-08-10T08:07:23.050Z,98424.16
2022-08-10T08:11:29.624Z,98431.69
2022-08-10T08:16:20.403Z,98431.22
2022-08-10T08:20:01.549Z,98426.16
2022-08-10T08:24:33.054Z,98427.53
2022-08-10T08:28:37.157Z,98432.94
2022-08-10T08:32:44.509Z,98423.75
2022-08-10T08:36:50.600Z,98423.97
2022-08-10T08:41:01.211Z,98422.03
2022-08-10T08:45:16.060Z,98420.50
2022-08-10T08:50:04.468Z,98427.69
2022-08-10T08:54:14.660Z,98416.81
2022-08-10T08:58:31.884Z,98418.34
2022-08-10T09:02:56.647Z,98418.25
2022-08-10T09:07:59.426Z,98416.28
2022-08-10T09:12:07.587Z,98421.03
2022-08-10T09:16:24.834Z,98415.41
2022-08-10T09:20:36.069Z,98414.69
2022-08-10T09:24:46.840Z,98401.50
2022-08-10T09:28:57.738Z,98395.72
2022-08-10T09:36:25.388Z,98401.81
2022-08-10T09:38:02.170Z,98399.78
2022-08-10T09:42:15.162Z,98398.28
2022-08-10T09:46:27.328Z,98392.13
2022-08-10T09:51:16.284Z,98388.97
2022-08-10T09:55:16.369Z,98376.94
2022-08-10T10:00:00.276Z,98382.31
2022-08-10T10:03:56.675Z,98376.69
2022-08-10T10:08:11.104Z,98376.38
2022-08-10T10:12:25.983Z,98370.97
2022-08-10T10:16:44.947Z,98364.53
2022-08-10T10:20:57.484Z,98367.22
2022-08-10T10:25:20.991Z,98365.81
2022-08-10T10:29:58.267Z,98356.16
2022-08-10T10:34:12.693Z,98352.41
2022-08-10T10:38:18.551Z,98356.97
2022-08-10T10:42:47.904Z,98350.13
2022-08-10T10:51:09.897Z,98342.53
2022-08-10T10:55:27.336Z,98340.09
2022-08-10T10:59:54.959Z,98337.97
2022-08-10T11:04:16.438Z,98342.06
2022-08-10T11:08:29.185Z,98338.47
2022-08-10T11:12:40.677Z,98333.97
2022-08-10T11:16:57.181Z,98332.31
2022-08-10T11:21:11.980Z,98333.06
2022-08-10T11:25:31.836Z,98321.59
2022-08-10T11:29:43.903Z,98320.91
2022-08-10T11:34:47.399Z,98323.75
2022-08-10T11:38:42.793Z,98322.72
2022-08-10T11:43:07.304Z,98324.00
2022-08-10T11:47:13.839Z,98317.72
2022-08-10T11:51:23.039Z,98316.28
2022-08-10T11:55:29.824Z,98321.31
2022-08-10T11:59:58.632Z,98313.66
2022-08-10T12:04:12.054Z,98313.56
2022-08-10T12:10:04.170Z,98308.09
2022-08-10T12:12:48.936Z,98306.50
2022-08-10T12:17:02.440Z,98301.59
2022-08-10T12:21:16.332Z,98304.78
2022-08-10T12:25:57.183Z,98299.84
2022-08-10T12:30:03.764Z,98289.75
2022-08-10T12:34:22.417Z,98285.81
2022-08-10T12:38:36.734Z,98278.16
2022-08-10T12:43:02.461Z,98278.41
2022-08-10T12:47:20.719Z,98280.56
2022-08-10T12:51:30.402Z,98274.00
2022-08-10T12:55:35.732Z,98270.00
2022-08-10T12:59:43.796Z,98271.09
2022-08-10T13:04:23.699Z,98263.09
2022-08-10T13:08:33.712Z,98257.75
2022-08-10T13:12:44.830Z,98249.69
2022-08-10T13:16:51.016Z,98248.41
2022-08-10T13:20:56.021Z,98246.69
2022-08-10T13:25:04.808Z,98251.50
2022-08-10T13:29:15.437Z,98245.56
2022-08-10T13:34:40.599Z,98246.38
2022-08-10T13:37:46.188Z,98235.84
2022-08-10T13:41:54.943Z,98237.38
2022-08-10T13:45:59.359Z,98223.75
2022-08-10T13:50:06.663Z,98225.44
2022-08-10T13:54:13.132Z,98217.22
2022-08-10T13:58:23.595Z,98219.47
2022-08-10T14:02:33.253Z,98211.16
2022-08-10T14:06:37.126Z,98205.72
2022-08-10T14:11:09.818Z,98197.03
2022-08-10T14:15:11.757Z,98208.97
2022-08-10T14:19:18.629Z,98196.53
2022-08-10T14:23:23.851Z,98197.63
2022-08-10T14:27:27.412Z,98193.72
2022-08-10T14:32:00.716Z,98190.88
2022-08-10T14:36:20.246Z,98190.38
2022-08-10T14:40:36.483Z,98183.56
2022-08-10T14:44:46.753Z,98191.75
2022-08-10T14:48:52.922Z,98178.69
2022-08-10T14:52:57.860Z,98180.50
2022-08-10T14:57:10.856Z,98184.28
2022-08-10T15:01:20.743Z,98176.69
2022-08-10T15:05:39.322Z,98178.69
2022-08-10T15:10:01.394Z,98176.81
2022-08-10T15:14:41.933Z,98163.88
2022-08-10T15:18:33.928Z,98163.47
2022-08-10T15:22:40.582Z,98158.75
2022-08-10T15:26:51.364Z,98162.56
2022-08-10T15:31:02.073Z,98152.06
2022-08-10T15:35:25.643Z,98142.97
2022-08-10T15:40:22.019Z,98151.03
2022-08-10T15:43:57.497Z,98142.34
2022-08-10T15:48:04.031Z,98136.03
2022-08-10T15:52:14.615Z,98137.81
2022-08-10T15:56:46.111Z,98129.84
2022-08-10T16:00:57.393Z,98126.53
2022-08-10T16:05:08.133Z,98127.31
2022-08-10T16:10:24.092Z,98125.00
2022-08-10T16:13:50.663Z,98121.66
2022-08-10T16:18:08.894Z,98112.09
2022-08-10T16:22:36.651Z,98120.88
2022-08-10T16:26:40.641Z,98109.72
2022-08-10T16:30:48.577Z,98103.34
2022-08-10T16:34:53.352Z,98093.75
2022-08-10T16:38:57.874Z,98100.84
2022-08-10T16:43:03.971Z,98101.97
2022-08-10T16:51:21.714Z,98093.75
2022-08-10T16:55:49.930Z,98097.31
2022-08-10T16:59:51.689Z,98099.53
2022-08-10T17:04:06.624Z,98095.53
2022-08-10T17:08:17.952Z,98097.72
2022-08-10T17:12:27.150Z,98096.94
2022-08-10T17:16:35.923Z,98107.66
2022-08-10T17:20:43.679Z,98106.03
2022-08-10T17:24:54.768Z,98103.81
2022-08-10T17:29:02.334Z,98107.53
2022-08-10T17:33:14.055Z,98110.91
2022-08-10T17:37:20.645Z,98116.41
2022-08-10T17:41:30.483Z,98110.09
2022-08-10T17:45:46.267Z,98109.88
2022-08-10T17:49:57.494Z,98113.19
2022-08-10T17:54:03.425Z,98115.63
2022-08-10T17:58:13.717Z,98111.88
2022-08-10T18:02:21.380Z,98110.88
2022-08-10T18:06:25.417Z,98113.78
2022-08-10T18:10:29.201Z,98118.31
2022-08-10T18:14:35.100Z,98111.09
2022-08-10T18:18:40.027Z,98115.78
2022-08-10T18:22:46.625Z,98115.97
2022-08-10T18:26:52.790Z,98117.72
2022-08-10T18:30:58.520Z,98113.59
2022-08-10T18:35:04.655Z,98117.16
2022-08-10T18:39:09.715Z,98125.22
2022-08-10T18:44:07.591Z,98134.94
2022-08-10T18:47:59.684Z,98142.25
2022-08-10T18:52:05.843Z,98148.97
2022-08-10T18:56:21.962Z,98147.44
2022-08-10T19:00:33.086Z,98147.56
2022-08-10T19:04:57.066Z,98154.03
2022-08-10T19:09:46.202Z,98161.00
2022-08-10T19:13:55.233Z,98156.34
2022-08-10T19:18:12.320Z,98151.44
2022-08-10T19:22:22.667Z,98162.16
2022-08-10T19:26:44.584Z,98160.94
2022-08-10T19:30:53.251Z,98166.75
2022-08-10T19:35:05.023Z,98170.59
2022-08-10T19:39:18.026Z,98173.56
2022-08-10T19:43:59.539Z,98168.31
2022-08-10T19:47:57.213Z,98170.25
2022-08-10T19:52:10.131Z,98171.59
2022-08-10T19:56:34.162Z,98169.06
2022-08-10T20:00:42.437Z,98172.03
2022-08-10T20:04:58.404Z,98170.53
2022-08-10T20:09:07.101Z,98178.00
2022-08-10T20:13:16.535Z,98174.88
2022-08-10T20:17:28.544Z,98185.56
2022-08-10T20:21:40.710Z,98188.69
2022-08-10T20:25:48.984Z,98187.72
2022-08-10T20:29:59.489Z,98175.97
2022-08-10T20:34:08.629Z,98189.88
2022-08-10T20:38:20.926Z,98185.06
2022-08-10T20:42:34.182Z,98193.44
2022-08-10T20:46:49.120Z,98201.00
2022-08-10T20:50:58.639Z,98207.56
2022-08-10T20:55:08.716Z,98211.47
2022-08-10T20:59:33.476Z,98206.78
2022-08-10T21:03:54.136Z,98210.06
2022-08-10T21:08:15.010Z,98206.84
2022-08-10T21:12:45.517Z,98207.06
2022-08-10T21:17:10.206Z,98202.38
2022-08-10T21:21:41.673Z,98200.75
2022-08-10T21:25:58.959Z,98194.25
2022-08-10T21:30:09.218Z,98191.41
2022-08-10T21:34:32.360Z,98195.66
2022-08-10T21:38:48.138Z,98196.69
2022-08-10T21:43:16.226Z,98204.41
2022-08-10T21:48:16.486Z,98200.75
2022-08-10T21:52:42.663Z,98203.63
2022-08-10T21:57:43.733Z,98202.38
2022-08-10T22:02:10.307Z,98188.13
2022-08-10T22:06:33.387Z,98198.28
2022-08-10T22:11:01.448Z,98192.00
2022-08-10T22:15:31.181Z,98193.41
2022-08-10T22:20:24.840Z,98196.66
2022-08-10T22:24:58.501Z,98197.88
2022-08-10T22:29:42.649Z,98196.66
2022-08-10T22:34:16.469Z,98193.00
2022-08-10T22:38:51.281Z,98190.56
2022-08-10T22:43:15.273Z,98184.47
2022-08-10T22:47:56.455Z,98193.41
2022-08-10T22:52:07.726Z,98189.50
2022-08-10T22:56:28.360Z,98193.97
2022-08-10T23:00:32.451Z,98185.22
2022-08-10T23:04:44.931Z,98187.03
2022-08-10T23:08:54.636Z,98190.47
2022-08-10T23:13:03.515Z,98192.09
2022-08-10T23:18:02.087Z,98197.97
2022-08-10T23:22:04.674Z,98188.59
2022-08-10T23:26:12.806Z,98197.53
2022-08-10T23:30:19.026Z,98200.56
2022-08-10T23:34:27.071Z,98204.38
2022-08-10T23:38:33.959Z,98197.47
2022-08-10T23:42:42.217Z,98187.28
2022-08-10T23:46:46.516Z,98184.81
2022-08-10T23:50:59.253Z,98183.59
2022-08-10T23:55:07.445Z,98182.34
2022-08-10T23:59:16.883Z,98178.91
